Thief River Falls, MN (56701)

11:46 PM CDT on August 31, 2016 (GMT -0500)
Thief River Falls Regional | | Change Station

Elev 1115 ft 48.06 °N, 96.18 °W | Updated 1 hour ago

Clear
Clear
59 °F
Feels Like 59 °F
N
8
Wind Variable Wind from ENE

Today
High -- | Low -- °F
--% Chance of Precip.
Yesterday
High -- | Low -- °F
Precip. -- in
Pressure 30.26 in
Visibility 10.0 miles
Clouds Clear
Dew Point 53 °F
Humidity 81%
Rainfall 0.00 in
Snow Depth Not available.
6:41 AM 8:06 PM
Waning Crescent, 0% visible
METAR KTVF 010256Z AUTO 06007KT 10SM CLR 15/12 A3025 RMK AO2 SLP246 T01500117 53006
Pressure 30.26 in
Visibility 10.0 miles
Clouds Clear
Dew Point 53 °F
Humidity 81%
Rainfall 0.00 in
Snow Depth Not available.
6:41 AM 8:06 PM
Waning Crescent, 0% visible
METAR KTVF 010256Z AUTO 06007KT 10SM CLR 15/12 A3025 RMK AO2 SLP246 T01500117 53006

10-Day Weather Forecast

Almanac

Astronomy

Aug. 31, 2016 Rise Set
Actual Time
Civil Twilight
Nautical Twilight
Astronomical Twilight
Moon
Length of Visible Light
Length of Day
Tomorrow will be .
, % of the Moon is Illuminated

Today's Extremes

State Highs State Lows

Community

WunderPhotos

Upload Photos

1,936,313 photos uploaded!

WunderBlog® & News

Nearby

Air Quality

  Air Quality AQ Index Pollutant
Not available.

Snow Depth

Station Depth Elevation

Earthquake Activity

City Distance Mag. Time & Date
Minimum magnitude displayed is 2.5.

Coastal Water Temperatures

Place Temperature

Stations

Nearby Weather Stations

Station Location Temp. Windchill Dew Point Humidity Wind Precip. Elev Updated Type
                   

Watches & Warnings

There are currently no watches in effect.